Time;durP1;ratioP1;P1;durP2;ratioP2;P2;SDS_P1;SDS_P2;PMS_P1;PMS_P2;Temp;Humidity;BMP_temperature;BMP_pressure;BME280_temperature;BME280_humidity;BME280_pressure;Samples;Min_cycle;Max_cycle;Signal;HPM_P1;HPM_P2
2022/08/20 00:02:30;;;;;;;18.00;13.20;;;;;;;23.41;71.78;100021.82;109900;1257;22075;-77
2022/08/20 00:05:01;;;;;;;14.60;12.60;;;;;;;23.41;71.77;100018.52;109681;1259;23764;-77
2022/08/20 00:07:32;;;;;;;;;;;;;;;23.39;71.68;100025.58;109966;1262;22243;-77
2022/08/20 00:10:18;;;;;;;17.20;13.80;;;;;;;23.24;71.81;100037.81;109931;1260;21985;-76
2022/08/20 00:12:52;;;;;;;16.50;13.30;;;;;;;23.18;72.15;100055.77;109682;1261;22743;-76
2022/08/20 00:15:40;;;;;;;18.50;11.90;;;;;;;23.14;72.34;100068.47;109295;1265;21992;-76
2022/08/20 00:18:10;;;;;;;19.60;12.10;;;;;;;23.14;72.84;100070.84;109336;1265;23057;-76
2022/08/20 00:20:47;;;;;;;14.30;11.40;;;;;;;23.13;73.02;100067.27;109477;1265;22406;-76
2022/08/20 00:23:18;;;;;;;14.60;12.10;;;;;;;23.15;73.05;100062.16;108855;1270;22655;-76
2022/08/20 00:25:48;;;;;;;13.50;12.20;;;;;;;23.16;73.12;100061.91;108864;1265;22221;-77
2022/08/20 00:28:19;;;;;;;20.60;14.60;;;;;;;23.15;73.26;100064.81;109164;1267;23693;-76
2022/08/20 00:30:49;;;;;;;17.00;11.80;;;;;;;23.14;73.13;100054.19;109777;1260;22073;-77
2022/08/20 00:33:23;;;;;;;18.00;13.20;;;;;;;23.12;73.15;100044.95;109266;1262;22023;-76
2022/08/20 00:36:05;;;;;;;14.80;11.40;;;;;;;23.12;73.37;100037.40;109154;1266;21975;-76
2022/08/20 00:38:39;;;;;;;19.40;12.10;;;;;;;23.09;73.32;100034.91;108812;1270;23048;-76
2022/08/20 00:41:21;;;;;;;18.50;14.00;;;;;;;23.06;73.42;100042.42;108893;1264;22022;-77
2022/08/20 00:43:59;;;;;;;14.20;11.30;;;;;;;23.06;73.63;100038.49;109541;1264;23612;-76
2022/08/20 00:46:31;;;;;;;19.80;11.80;;;;;;;23.09;73.88;100033.07;109502;1264;21969;-76
2022/08/20 00:49:02;;;;;;;13.40;11.60;;;;;;;23.10;73.71;100033.08;109261;1266;22027;-77
2022/08/20 00:51:49;;;;;;;18.50;12.60;;;;;;;23.11;73.79;100042.46;109497;1261;23647;-76
2022/08/20 00:54:38;;;;;;;18.60;12.60;;;;;;;23.12;73.79;100040.11;109020;1267;21992;-76
2022/08/20 00:57:28;;;;;;;17.90;12.00;;;;;;;23.10;73.64;100031.48;109320;1262;21997;-77
2022/08/20 01:00:31;;;;;;;17.70;12.20;;;;;;;23.08;73.64;100026.55;109907;1256;23000;-76
2022/08/20 01:03:01;;;;;;;19.80;12.80;;;;;;;23.06;73.75;100028.10;110169;1257;23602;-77
2022/08/20 01:05:33;;;;;;;16.40;12.70;;;;;;;23.10;73.93;100025.64;110349;1256;23573;-77
2022/08/20 01:08:06;;;;;;;17.30;13.80;;;;;;;23.14;74.05;100022.56;110163;1257;22146;-78
2022/08/20 01:10:49;;;;;;;15.20;13.00;;;;;;;23.17;73.85;100026.39;110173;1258;21990;-78
2022/08/20 01:13:27;;;;;;;17.10;15.00;;;;;;;23.15;73.69;100019.65;110033;1256;21969;-76
2022/08/20 01:16:02;;;;;;;18.20;12.00;;;;;;;23.12;73.45;100020.98;110119;1256;22850;-77
2022/08/20 01:18:37;;;;;;;14.30;10.70;;;;;;;23.06;73.60;100019.80;110190;1251;21951;-78
2022/08/20 01:21:10;;;;;;;17.80;13.00;;;;;;;23.06;73.72;100027.66;110877;1250;22898;-77
2022/08/20 01:24:26;;;;;;;18.30;12.50;;;;;;;23.03;73.59;100031.73;110155;1258;23615;-76
2022/08/20 01:27:04;;;;;;;14.20;11.80;;;;;;;22.95;73.87;100031.23;110210;1256;23679;-77
2022/08/20 01:29:40;;;;;;;16.90;12.00;;;;;;;22.90;73.76;100034.20;110193;1257;23830;-77
2022/08/20 01:32:15;;;;;;;13.00;11.50;;;;;;;22.84;73.77;100027.24;110355;1256;24396;-76
2022/08/20 01:34:44;;;;;;;20.40;12.90;;;;;;;22.80;74.24;100019.83;110299;1257;21971;-77
2022/08/20 01:37:14;;;;;;;14.90;12.30;;;;;;;22.82;74.72;100017.48;109363;1264;24063;-77
2022/08/20 01:39:43;;;;;;;15.50;13.10;;;;;;;22.82;74.70;100014.14;109618;1263;22332;-77
2022/08/20 01:42:51;;;;;;;19.10;13.30;;;;;;;22.79;74.67;100012.33;109643;1257;22110;-77
2022/08/20 01:45:30;;;;;;;18.00;13.10;;;;;;;22.73;74.82;100016.92;109967;1261;23674;-77
2022/08/20 01:48:08;;;;;;;17.50;13.00;;;;;;;22.67;74.80;100021.13;109851;1261;23580;-77
2022/08/20 01:50:48;;;;;;;16.70;13.70;;;;;;;22.64;75.02;100029.17;109855;1262;23712;-77
2022/08/20 01:53:44;;;;;;;14.70;12.60;;;;;;;22.61;75.17;100026.23;109737;1262;23051;-77
2022/08/20 01:56:21;;;;;;;15.70;13.20;;;;;;;22.56;75.30;100024.52;109653;1262;21958;-77
2022/08/20 01:58:54;;;;;;;19.80;14.40;;;;;;;22.52;75.50;100021.63;109615;1262;21977;-78
2022/08/20 02:01:39;;;;;;;16.20;13.80;;;;;;;22.51;75.85;100021.94;109008;1261;22960;-77
2022/08/20 02:04:17;;;;;;;18.70;14.90;;;;;;;22.52;76.06;100021.90;109210;1261;24921;-77
2022/08/20 02:06:58;;;;;;;22.20;14.80;;;;;;;22.56;75.95;100021.13;109526;1264;21972;-78
2022/08/20 02:09:33;;;;;;;15.30;13.10;;;;;;;22.58;76.01;100021.24;109618;1264;22745;-78
2022/08/20 02:12:07;;;;;;;16.20;13.80;;;;;;;22.57;75.77;100014.73;109013;1268;22421;-77
2022/08/20 02:14:51;;;;;;;15.50;13.70;;;;;;;22.56;76.09;100011.11;108830;1270;22082;-78
2022/08/20 02:17:24;;;;;;;14.00;12.50;;;;;;;22.58;76.12;100006.12;108674;1273;23053;-77
2022/08/20 02:20:05;;;;;;;14.40;12.90;;;;;;;22.61;76.09;100007.45;108567;1271;23149;-77
2022/08/20 02:22:54;;;;;;;16.80;13.80;;;;;;;22.62;75.95;100004.86;109183;1265;21966;-76
2022/08/20 02:25:31;;;;;;;17.60;13.70;;;;;;;22.58;75.65;100003.05;109580;1265;23724;-77
2022/08/20 02:28:12;;;;;;;17.80;14.00;;;;;;;22.54;75.65;100002.64;109157;1265;23712;-75
2022/08/20 02:30:50;;;;;;;17.30;13.30;;;;;;;22.50;75.82;99993.28;109301;1265;22132;-77
2022/08/20 02:33:21;;;;;;;19.50;14.60;;;;;;;22.50;75.98;99990.06;109387;1262;22442;-76
2022/08/20 02:35:54;;;;;;;17.40;14.40;;;;;;;22.51;75.88;99995.07;109629;1257;22398;-76
2022/08/20 02:38:26;;;;;;;;;;;;;;;22.51;75.59;99995.98;110469;1250;21940;-76
2022/08/20 02:40:55;;;;;;;14.60;13.10;;;;;;;22.40;75.71;99996.74;110735;1251;23677;-76
2022/08/20 02:43:27;;;;;;;16.20;14.10;;;;;;;22.35;75.85;99994.38;110515;1251;22013;-76
2022/08/20 02:46:01;;;;;;;15.40;13.50;;;;;;;22.30;75.88;99995.47;110311;1254;21967;-77
2022/08/20 02:48:32;;;;;;;14.00;12.60;;;;;;;22.28;76.10;99989.63;110534;1254;21959;-76
2022/08/20 02:51:05;;;;;;;14.10;12.70;;;;;;;22.27;76.15;99981.44;110502;1254;22030;-76
2022/08/20 02:53:40;;;;;;;16.00;13.50;;;;;;;22.29;76.19;99980.02;110413;1254;22033;-76
2022/08/20 02:56:11;;;;;;;15.10;13.10;;;;;;;22.28;75.88;99982.85;110415;1257;23676;-76
2022/08/20 02:58:41;;;;;;;18.70;13.50;;;;;;;22.25;75.70;99980.71;110336;1254;21969;-77
2022/08/20 03:01:19;;;;;;;18.30;13.00;;;;;;;22.20;75.72;99977.33;110438;1257;22278;-77
2022/08/20 03:03:49;;;;;;;14.00;12.30;;;;;;;22.14;75.74;99969.66;110562;1250;22825;-77
2022/08/20 03:06:20;;;;;;;14.30;12.80;;;;;;;22.11;76.02;99961.98;110962;1250;21953;-76
2022/08/20 03:08:52;;;;;;;18.60;13.30;;;;;;;22.13;76.14;99958.84;110788;1251;22923;-76
2022/08/20 03:11:21;;;;;;;15.70;14.20;;;;;;;22.16;76.21;99960.43;110374;1254;23341;-76
2022/08/20 03:13:53;;;;;;;18.50;13.70;;;;;;;22.14;75.86;99962.09;110451;1257;22027;-76
2022/08/20 03:16:25;;;;;;;15.40;13.50;;;;;;;22.11;76.02;99951.29;110467;1257;22383;-77
2022/08/20 03:18:56;;;;;;;15.80;14.10;;;;;;;22.10;76.22;99939.23;110170;1260;24504;-77
2022/08/20 03:21:25;;;;;;;15.80;12.60;;;;;;;22.12;76.13;99945.27;110134;1260;22739;-76
2022/08/20 03:23:55;;;;;;;15.10;13.40;;;;;;;22.12;76.03;99953.87;109218;1264;21985;-77
2022/08/20 03:26:24;;;;;;;14.50;12.80;;;;;;;22.09;75.93;99962.02;109531;1265;22745;-78
2022/08/20 03:28:55;;;;;;;19.90;13.30;;;;;;;22.06;75.84;99967.80;109344;1260;23064;-77
2022/08/20 03:31:28;;;;;;;16.00;13.90;;;;;;;22.03;75.93;99973.52;109567;1261;21979;-76
2022/08/20 03:34:02;;;;;;;16.40;12.30;;;;;;;22.00;76.08;99971.83;109688;1260;22039;-77
2022/08/20 03:36:31;;;;;;;18.50;14.40;;;;;;;22.00;76.18;99965.20;110043;1257;22472;-77
2022/08/20 03:39:10;;;;;;;15.40;13.10;;;;;;;22.04;76.38;99965.52;110359;1256;22926;-77
2022/08/20 03:41:41;;;;;;;15.20;12.50;;;;;;;22.06;76.40;99964.99;110352;1254;22085;-77
2022/08/20 03:44:12;;;;;;;15.40;13.20;;;;;;;22.07;76.19;99964.31;110302;1254;23918;-77
2022/08/20 03:46:44;;;;;;;14.70;13.20;;;;;;;22.05;75.99;99966.27;110451;1256;23028;-77
2022/08/20 03:49:13;;;;;;;16.40;14.40;;;;;;;22.02;75.94;99968.83;110484;1251;22297;-76
2022/08/20 03:51:45;;;;;;;16.20;13.30;;;;;;;21.98;76.12;99969.31;110703;1251;23603;-77
2022/08/20 03:54:26;;;;;;;18.50;14.00;;;;;;;21.93;76.15;99967.00;110822;1251;21992;-77
2022/08/20 03:57:12;;;;;;;16.10;12.60;;;;;;;21.89;76.45;99962.33;110970;1250;21953;-77
2022/08/20 03:59:44;;;;;;;16.00;13.90;;;;;;;21.86;76.53;99967.89;110782;1250;23022;-76
2022/08/20 04:02:27;;;;;;;15.90;13.90;;;;;;;21.85;76.74;99969.61;110267;1254;21970;-75
2022/08/20 04:04:59;;;;;;;18.80;14.30;;;;;;;21.83;76.73;99973.09;110407;1254;23070;-75
2022/08/20 04:07:29;;;;;;;41.30;37.20;;;;;;;21.82;76.67;99976.95;110460;1253;22979;-76
2022/08/20 04:09:59;;;;;;;16.80;13.90;;;;;;;21.81;76.91;99978.06;110329;1254;22094;-76
2022/08/20 04:12:28;;;;;;;14.90;12.80;;;;;;;21.82;77.06;99972.33;110507;1254;23821;-76
2022/08/20 04:14:57;;;;;;;18.00;13.50;;;;;;;21.85;77.04;99971.17;110334;1254;23127;-75
2022/08/20 04:17:27;;;;;;;15.20;13.60;;;;;;;21.88;77.25;99968.13;110525;1254;21989;-75
2022/08/20 04:19:57;;;;;;;14.70;12.70;;;;;;;21.93;77.27;99968.57;110311;1257;24922;-77
2022/08/20 04:22:26;;;;;;;13.70;12.30;;;;;;;21.95;76.98;99973.11;110331;1257;21978;-77
2022/08/20 04:24:57;;;;;;;19.50;14.20;;;;;;;21.95;76.91;99973.11;110384;1254;21950;-76
2022/08/20 04:27:31;;;;;;;14.00;12.30;;;;;;;21.94;76.76;99972.02;110714;1251;23032;-77
2022/08/20 04:30:07;;;;;;;15.70;11.70;;;;;;;21.96;76.79;99974.57;110892;1251;22024;-76
2022/08/20 04:32:41;;;;;;;14.10;12.00;;;;;;;21.99;76.77;99971.76;110722;1250;23607;-77
2022/08/20 04:35:21;;;;;;;18.00;12.30;;;;;;;22.04;76.92;99969.45;110442;1257;21960;-77
2022/08/20 04:38:07;;;;;;;17.50;12.60;;;;;;;22.11;76.94;99963.75;110115;1257;22850;-77
2022/08/20 04:40:57;;;;;;;16.00;12.00;;;;;;;22.16;76.67;99961.79;110371;1257;23043;-77
2022/08/20 04:43:33;;;;;;;15.70;11.70;;;;;;;22.22;76.52;99964.39;110332;1257;23760;-76
2022/08/20 04:46:10;;;;;;;13.30;11.20;;;;;;;22.26;76.25;99965.77;110211;1257;23091;-77
2022/08/20 04:48:43;;;;;;;17.10;11.50;;;;;;;22.30;76.09;99964.84;110214;1257;21966;-76
2022/08/20 04:51:21;;;;;;;15.60;11.60;;;;;;;22.34;75.97;99964.34;110186;1257;22267;-77
2022/08/20 04:53:55;;;;;;;15.10;10.20;;;;;;;22.39;75.76;99964.12;110494;1250;23581;-77
2022/08/20 04:56:31;;;;;;;14.30;11.60;;;;;;;22.43;75.49;99969.27;110401;1257;23044;-76
2022/08/20 04:59:10;;;;;;;16.00;11.60;;;;;;;22.47;75.40;99969.48;110031;1257;21978;-77
2022/08/20 05:01:40;;;;;;;15.80;10.80;;;;;;;22.51;75.39;99972.90;109569;1263;21984;-77
2022/08/20 05:04:11;;;;;;;15.90;11.70;;;;;;;22.56;75.27;99974.89;109209;1264;22089;-77
2022/08/20 05:06:45;;;;;;;16.70;10.20;;;;;;;22.60;75.12;99977.50;109491;1263;22037;-77
2022/08/20 05:09:14;;;;;;;13.90;10.30;;;;;;;22.64;74.95;99974.73;109269;1264;24285;-77
2022/08/20 05:11:44;;;;;;;16.60;9.90;;;;;;;22.69;74.77;99978.11;109572;1263;22451;-77
2022/08/20 05:14:21;;;;;;;18.20;10.10;;;;;;;22.73;74.61;99973.18;109721;1262;22051;-77
2022/08/20 05:16:55;;;;;;;15.70;10.70;;;;;;;22.74;74.27;99978.42;109261;1263;21981;-77
2022/08/20 05:19:27;;;;;;;13.90;10.70;;;;;;;22.73;73.97;99983.10;109721;1258;22738;-78
2022/08/20 05:22:00;;;;;;;15.00;10.10;;;;;;;22.69;73.69;99983.39;110510;1250;21961;-78
2022/08/20 05:24:32;;;;;;;12.40;9.90;;;;;;;22.66;73.57;99985.30;110462;1254;23590;-77
2022/08/20 05:27:01;;;;;;;16.50;10.00;;;;;;;22.60;73.38;99990.69;110221;1254;22780;-77
2022/08/20 05:29:31;;;;;;;17.90;11.20;;;;;;;22.56;73.56;99990.98;110335;1256;21980;-77
2022/08/20 05:32:00;;;;;;;16.60;11.00;;;;;;;22.55;73.68;99996.56;110425;1254;22034;-77
2022/08/20 05:34:30;;;;;;;16.30;11.00;;;;;;;22.53;73.78;99995.26;110357;1254;22038;-77
2022/08/20 05:37:03;;;;;;;16.10;10.50;;;;;;;22.51;73.95;99995.89;110377;1257;21981;-77
2022/08/20 05:39:36;;;;;;;13.50;10.00;;;;;;;22.48;73.83;99991.60;110325;1254;23574;-77
2022/08/20 05:42:05;;;;;;;13.50;10.80;;;;;;;22.45;73.86;99985.70;110155;1254;21957;-77
2022/08/20 05:44:38;;;;;;;13.40;11.30;;;;;;;22.42;73.93;99992.35;110230;1254;23601;-76
2022/08/20 05:47:16;;;;;;;12.30;9.90;;;;;;;22.38;74.15;99992.70;109677;1260;22025;-76
2022/08/20 05:50:05;;;;;;;15.40;11.20;;;;;;;22.36;74.16;99994.83;109748;1257;22342;-75
2022/08/20 05:52:57;;;;;;;13.00;10.40;;;;;;;22.34;74.55;100002.40;110442;1256;23412;-76
2022/08/20 05:55:32;;;;;;;19.00;10.80;;;;;;;22.34;74.73;100007.18;110199;1257;22657;-76
2022/08/20 05:58:06;;;;;;;14.50;11.50;;;;;;;22.35;74.56;100008.11;110304;1257;21963;-76
2022/08/20 06:00:43;;;;;;;13.60;12.00;;;;;;;22.35;74.53;100006.28;110335;1257;22403;-76
2022/08/20 06:06:09;;;;;;;16.40;12.20;;;;;;;22.34;74.72;100001.91;110182;1257;22206;-76
2022/08/20 06:09:06;;;;;;;12.60;11.00;;;;;;;22.32;74.65;100000.27;110306;1255;21957;-76
2022/08/20 06:11:35;;;;;;;13.80;12.00;;;;;;;22.32;74.61;99996.88;110594;1250;21967;-77
2022/08/20 06:14:08;;;;;;;15.10;10.40;;;;;;;22.32;74.61;99998.02;110997;1248;23585;-77
2022/08/20 06:16:38;;;;;;;12.60;11.20;;;;;;;22.38;75.02;99995.86;110885;1247;21961;-77
2022/08/20 06:19:26;;;;;;;16.80;10.50;;;;;;;22.46;75.08;99991.05;110807;1250;23633;-74
2022/08/20 06:22:02;;;;;;;15.40;11.30;;;;;;;22.53;74.77;99987.77;110937;1248;22829;-76
2022/08/20 06:24:55;;;;;;;15.70;10.80;;;;;;;22.55;74.46;99989.56;110230;1256;22271;-78
2022/08/20 06:27:25;;;;;;;15.10;10.80;;;;;;;22.59;74.39;99988.37;109582;1261;21963;-77
2022/08/20 06:29:56;;;;;;;14.90;9.90;;;;;;;22.62;74.11;99994.10;109189;1265;21994;-78
2022/08/20 06:32:32;;;;;;;13.30;11.10;;;;;;;22.63;73.80;99990.34;109235;1267;22662;-77
2022/08/20 06:35:08;;;;;;;13.50;10.30;;;;;;;22.67;73.83;99979.11;109524;1265;21991;-77
2022/08/20 06:37:39;;;;;;;13.60;9.00;;;;;;;22.76;73.89;99969.98;107821;1270;1435094;-77
2022/08/20 06:40:10;;;;;;;13.90;9.40;;;;;;;22.85;73.34;99969.46;108939;1270;22755;-78
2022/08/20 06:42:44;;;;;;;14.40;8.90;;;;;;;22.90;73.09;99971.21;109100;1264;21976;-76
2022/08/20 06:45:28;;;;;;;13.80;9.00;;;;;;;22.96;72.75;99975.97;109504;1258;21958;-77
2022/08/20 06:48:04;;;;;;;10.70;8.30;;;;;;;23.02;72.29;99977.21;109902;1258;23053;-78
2022/08/20 06:50:41;;;;;;;14.90;8.20;;;;;;;23.09;72.21;99976.77;110476;1257;21986;-78
2022/08/20 06:53:19;;;;;;;14.50;8.90;;;;;;;23.20;72.04;99975.06;110164;1257;22969;-77
2022/08/20 06:55:57;;;;;;;14.30;10.50;;;;;;;23.34;71.95;99978.31;110482;1251;21965;-78
2022/08/20 06:58:35;;;;;;;12.70;9.50;;;;;;;23.54;72.18;99978.97;110088;1257;23827;-78
2022/08/20 07:01:12;;;;;;;11.80;8.80;;;;;;;23.84;72.55;99975.27;110455;1254;21960;-78
2022/08/20 07:03:42;;;;;;;11.90;8.30;;;;;;;24.19;71.89;99973.00;110245;1256;21968;-76
2022/08/20 07:06:25;;;;;;;13.60;8.20;;;;;;;24.52;70.95;99971.45;110480;1254;21968;-78
2022/08/20 07:08:57;;;;;;;13.80;8.00;;;;;;;24.77;68.90;99973.20;109976;1260;21966;-77
2022/08/20 07:11:26;;;;;;;14.90;8.90;;;;;;;24.83;66.82;99975.23;109826;1261;23447;-77
2022/08/20 07:13:57;;;;;;;12.50;7.50;;;;;;;24.88;66.08;99980.48;109643;1260;21982;-77
2022/08/20 07:16:32;;;;;;;13.50;8.00;;;;;;;24.92;65.30;99986.69;109857;1260;21956;-77
2022/08/20 07:19:05;;;;;;;15.40;7.40;;;;;;;24.99;65.42;99992.95;109697;1261;23283;-78
2022/08/20 07:21:37;;;;;;;11.90;7.60;;;;;;;25.20;65.68;100000.52;109972;1260;22742;-77
2022/08/20 07:24:11;;;;;;;14.30;7.60;;;;;;;25.50;65.38;100005.09;110368;1255;23580;-76
2022/08/20 07:26:41;;;;;;;12.80;7.00;;;;;;;25.82;64.67;100012.52;110202;1254;21969;-76
2022/08/20 07:29:10;;;;;;;15.80;8.80;;;;;;;26.09;63.36;100019.44;110460;1254;22052;-77
2022/08/20 07:34:34;;;;;;;13.20;7.20;;;;;;;26.39;60.51;100031.19;109936;1257;22511;-77
2022/08/20 07:37:05;;;;;;;10.60;7.10;;;;;;;26.44;59.95;100040.70;110211;1257;23071;-76
2022/08/20 07:39:35;;;;;;;12.10;7.00;;;;;;;26.48;59.85;100042.26;109523;1264;23807;-77
2022/08/20 07:42:06;;;;;;;13.50;7.20;;;;;;;26.50;59.65;100040.30;109293;1263;21982;-77
2022/08/20 07:44:37;;;;;;;17.30;7.60;;;;;;;26.50;58.96;100039.81;109575;1263;21978;-77
2022/08/20 07:47:11;;;;;;;12.30;7.80;;;;;;;26.47;59.00;100039.02;109184;1264;22049;-76
2022/08/20 07:49:41;;;;;;;15.00;8.10;;;;;;;26.46;59.14;100041.01;109183;1263;22893;-77
2022/08/20 07:52:12;;;;;;;16.20;8.60;;;;;;;26.48;58.95;100042.96;109414;1257;21966;-77
2022/08/20 07:54:43;;;;;;;11.90;7.30;;;;;;;26.36;58.54;100046.86;110014;1257;22962;-76
2022/08/20 07:57:16;;;;;;;16.70;8.80;;;;;;;26.23;59.12;100042.77;110137;1258;23044;-76
2022/08/20 07:59:52;;;;;;;13.70;7.90;;;;;;;26.20;59.42;100042.89;109602;1261;21983;-76
2022/08/20 08:02:27;;;;;;;13.30;8.40;;;;;;;26.11;59.40;100037.79;109764;1260;22431;-76
2022/08/20 08:04:58;;;;;;;12.00;8.20;;;;;;;26.03;59.74;100040.91;110233;1256;21969;-76
2022/08/20 08:07:31;;;;;;;15.80;8.70;;;;;;;26.01;60.01;100042.39;109762;1260;21969;-79
2022/08/20 08:10:05;;;;;;;13.90;9.00;;;;;;;25.95;59.89;100039.17;109573;1260;21978;-77
2022/08/20 08:12:44;;;;;;;14.00;8.70;;;;;;;25.89;60.31;100036.98;109037;1267;21996;-78
2022/08/20 08:15:21;;;;;;;9.80;8.40;;;;;;;25.83;60.02;100034.17;108749;1270;23747;-78
2022/08/20 08:17:55;;;;;;;13.70;8.30;;;;;;;25.68;59.97;100036.36;108851;1267;22917;-77
2022/08/20 08:20:24;;;;;;;13.40;9.10;;;;;;;25.57;60.38;100049.98;109132;1267;23098;-76
2022/08/20 08:22:54;;;;;;;14.80;8.60;;;;;;;25.54;60.84;100055.39;108841;1270;21978;-77
2022/08/20 08:25:26;;;;;;;19.20;9.80;;;;;;;25.54;61.04;100054.27;109444;1260;22081;-77
2022/08/20 08:27:59;;;;;;;14.40;8.50;;;;;;;25.59;61.23;100056.52;110026;1260;22066;-76
2022/08/20 08:30:32;;;;;;;12.50;9.50;;;;;;;25.66;61.32;100058.06;109973;1254;21972;-78
2022/08/20 08:35:50;;;;;;;14.10;9.60;;;;;;;25.84;61.21;100058.84;110781;1251;22052;-76
2022/08/20 08:38:22;;;;;;;16.30;9.40;;;;;;;25.98;61.36;100055.06;110966;1250;21954;-76
2022/08/20 08:40:56;;;;;;;16.90;9.20;;;;;;;26.11;60.79;100054.85;110780;1250;22382;-77
2022/08/20 08:43:29;;;;;;;13.90;8.80;;;;;;;26.21;60.61;100061.30;110791;1250;22902;-77
2022/08/20 08:46:05;;;;;;;25.00;16.60;;;;;;;26.34;60.05;100061.23;111028;1250;22042;-76
2022/08/20 08:48:44;;;;;;;15.50;10.00;;;;;;;26.46;59.98;100062.36;110491;1254;21963;-77
2022/08/20 08:51:26;;;;;;;14.00;8.60;;;;;;;26.56;58.89;100062.65;110464;1254;22979;-77
2022/08/20 08:53:59;;;;;;;15.80;8.80;;;;;;;26.58;58.53;100063.17;110371;1254;24392;-75
2022/08/20 08:56:35;;;;;;;16.40;8.60;;;;;;;26.66;58.51;100063.21;110255;1254;23583;-76
2022/08/20 08:59:12;;;;;;;15.70;9.20;;;;;;;26.73;57.84;100064.69;109798;1259;21963;-77
2022/08/20 09:01:52;;;;;;;14.10;8.80;;;;;;;26.77;57.88;100065.59;109913;1261;22029;-76
2022/08/20 09:04:36;;;;;;;12.70;8.00;;;;;;;26.87;57.66;100068.27;109690;1260;21968;-77
2022/08/20 09:07:13;;;;;;;12.80;9.00;;;;;;;26.91;57.01;100072.95;110034;1260;22897;-78
2022/08/20 09:09:45;;;;;;;16.00;10.30;;;;;;;26.91;56.75;100074.30;109601;1261;21977;-77
2022/08/20 09:12:19;;;;;;;14.10;11.40;;;;;;;26.94;57.18;100068.05;109264;1263;23061;-77
2022/08/20 09:14:50;;;;;;;15.70;9.50;;;;;;;27.04;57.02;100070.25;109758;1260;21976;-78
2022/08/20 09:17:23;;;;;;;15.10;9.20;;;;;;;27.12;56.18;100074.86;109257;1261;23388;-78
2022/08/20 09:19:55;;;;;;;14.80;8.20;;;;;;;27.05;55.94;100069.91;109950;1261;22332;-78
2022/08/20 09:22:25;;;;;;;15.70;8.40;;;;;;;27.03;56.32;100064.19;109402;1262;22005;-78
2022/08/20 09:24:55;;;;;;;21.10;10.50;;;;;;;27.08;56.93;100062.45;110154;1256;22995;-78
2022/08/20 09:27:26;;;;;;;15.50;10.40;;;;;;;27.18;56.81;100060.34;110264;1256;22280;-77
2022/08/20 09:29:55;;;;;;;13.40;9.70;;;;;;;27.26;56.48;100048.29;110395;1250;21965;-76
2022/08/20 09:32:25;;;;;;;17.20;12.20;;;;;;;27.41;56.76;100045.09;110770;1250;22037;-75
2022/08/20 09:34:55;;;;;;;17.30;9.30;;;;;;;27.62;56.16;100044.65;110980;1250;22046;-78
2022/08/20 09:37:28;;;;;;;15.90;8.90;;;;;;;27.80;55.60;100043.16;110883;1251;22738;-77
2022/08/20 09:40:06;;;;;;;14.30;9.30;;;;;;;28.06;55.22;100042.58;110753;1250;21986;-77
2022/08/20 09:42:37;;;;;;;12.60;8.60;;;;;;;28.22;53.91;100041.40;110751;1250;23583;-76
2022/08/20 09:45:11;;;;;;;16.90;12.50;;;;;;;28.37;53.52;100045.16;111003;1248;23238;-77
2022/08/20 09:47:41;;;;;;;15.60;8.60;;;;;;;28.50;53.42;100043.25;110803;1250;22880;-76
2022/08/20 09:50:29;;;;;;;13.60;7.50;;;;;;;28.64;52.70;100042.39;110844;1250;21955;-75
2022/08/20 09:53:00;;;;;;;18.40;10.60;;;;;;;28.72;52.44;100036.60;110828;1250;24379;-77
2022/08/20 09:55:36;;;;;;;15.10;8.90;;;;;;;28.81;51.95;100029.45;110816;1250;23732;-76
2022/08/20 09:58:40;;;;;;;17.40;10.50;;;;;;;28.76;50.72;100030.39;110836;1250;23015;-77
2022/08/20 10:01:17;;;;;;;16.60;9.70;;;;;;;28.65;51.38;100030.95;110718;1251;21974;-77
2022/08/20 10:03:48;;;;;;;16.10;8.90;;;;;;;28.63;51.52;100031.05;110990;1250;21956;-76
2022/08/20 10:06:19;;;;;;;18.00;10.00;;;;;;;28.56;51.41;100035.83;110889;1251;21963;-77
2022/08/20 10:08:49;;;;;;;18.90;10.80;;;;;;;28.47;51.71;100039.80;110989;1250;23631;-77
2022/08/20 10:11:18;;;;;;;16.70;10.60;;;;;;;28.42;52.00;100036.55;111000;1250;22733;-77
2022/08/20 10:13:48;;;;;;;15.40;10.20;;;;;;;28.35;51.95;100035.30;110754;1250;23714;-77
2022/08/20 10:16:17;;;;;;;17.90;11.40;;;;;;;28.28;52.49;100036.63;110597;1250;23026;-78
2022/08/20 10:18:48;;;;;;;17.00;11.50;;;;;;;28.20;52.44;100037.84;111022;1249;21977;-77
2022/08/20 10:21:17;;;;;;;15.80;10.40;;;;;;;28.07;52.48;100042.19;110974;1249;22982;-78
2022/08/20 10:23:46;;;;;;;17.10;10.60;;;;;;;27.98;53.00;100040.52;111219;1247;21969;-79
2022/08/20 10:26:18;;;;;;;19.00;11.00;;;;;;;27.95;53.41;100039.15;110768;1247;21959;-77
2022/08/20 10:28:47;;;;;;;17.70;11.40;;;;;;;27.95;53.65;100039.69;110558;1253;22021;-77
2022/08/20 10:31:16;;;;;;;19.30;11.70;;;;;;;27.88;53.27;100039.34;110642;1253;23613;-77
2022/08/20 10:33:48;;;;;;;16.20;10.50;;;;;;;27.77;53.64;100042.66;110418;1254;23501;-76
2022/08/20 10:36:17;;;;;;;17.20;11.60;;;;;;;27.76;54.11;100041.86;110377;1254;22205;-78
2022/08/20 10:38:47;;;;;;;16.30;10.60;;;;;;;27.81;54.15;100042.02;110544;1253;21968;-76
2022/08/20 10:41:16;;;;;;;18.30;10.60;;;;;;;27.88;53.90;100040.08;110485;1253;21972;-77
2022/08/20 10:43:46;;;;;;;16.00;9.40;;;;;;;27.93;53.68;100045.46;110465;1253;22782;-78
2022/08/20 10:46:19;;;;;;;18.70;12.00;;;;;;;27.97;53.85;100050.02;110558;1250;23555;-76
2022/08/20 10:48:48;;;;;;;16.00;9.70;;;;;;;28.06;53.90;100047.69;110878;1247;21965;-76
2022/08/20 10:51:17;;;;;;;18.80;11.90;;;;;;;28.15;53.91;100052.36;110940;1247;22797;-77
2022/08/20 10:53:46;;;;;;;24.20;19.80;;;;;;;28.25;53.96;100054.01;110511;1254;23087;-78
2022/08/20 10:56:16;;;;;;;15.10;10.70;;;;;;;28.42;53.78;100059.86;110526;1254;23700;-76
2022/08/20 10:58:45;;;;;;;17.60;10.60;;;;;;;28.47;53.05;100059.75;109790;1260;22076;-78
2022/08/20 11:01:17;;;;;;;13.40;11.90;;;;;;;28.41;52.49;100058.54;109689;1261;23695;-77
2022/08/20 11:04:02;;;;;;;16.20;11.80;;;;;;;28.29;52.96;100055.30;109890;1260;22120;-77
2022/08/20 11:06:31;;;;;;;17.60;11.00;;;;;;;28.39;53.41;100059.38;109878;1260;23596;-77
2022/08/20 11:09:04;;;;;;;14.10;9.60;;;;;;;28.40;52.82;100062.14;109598;1260;22961;-78
2022/08/20 11:11:37;;;;;;;20.00;11.30;;;;;;;28.34;52.77;100063.17;109629;1254;22457;-76
2022/08/20 11:14:06;;;;;;;17.50;10.70;;;;;;;28.28;52.83;100055.33;110218;1254;23683;-77
2022/08/20 11:16:35;;;;;;;16.00;10.40;;;;;;;28.26;53.23;100052.42;110468;1254;21975;-76
2022/08/20 11:19:07;;;;;;;18.20;10.70;;;;;;;28.27;53.25;100053.77;109572;1263;22327;-77
2022/08/20 11:21:39;;;;;;;14.50;10.70;;;;;;;28.29;53.16;100057.16;109553;1263;23598;-78
2022/08/20 11:24:12;;;;;;;15.20;11.10;;;;;;;28.29;53.14;100054.33;110002;1257;21991;-79
2022/08/20 11:26:42;;;;;;;13.30;9.80;;;;;;;28.27;52.97;100054.63;110338;1255;23760;-77
2022/08/20 11:29:16;;;;;;;14.30;10.10;;;;;;;28.20;52.58;100049.02;110450;1256;21974;-77
2022/08/20 11:31:45;;;;;;;14.90;10.80;;;;;;;28.18;53.00;100046.29;110205;1256;23678;-77
2022/08/20 11:34:14;;;;;;;19.60;10.10;;;;;;;28.21;53.07;100039.88;110298;1256;21969;-78
2022/08/20 11:36:48;;;;;;;16.80;10.70;;;;;;;28.27;53.28;100037.89;110377;1251;22408;-78
2022/08/20 11:39:23;;;;;;;18.40;10.00;;;;;;;28.31;52.85;100032.73;110783;1250;22856;-77
2022/08/20 11:41:53;;;;;;;17.50;10.70;;;;;;;28.25;52.38;100031.73;110760;1250;22019;-77
2022/08/20 11:44:23;;;;;;;18.20;11.80;;;;;;;28.17;52.77;100032.17;110898;1250;21959;-78
2022/08/20 11:46:53;;;;;;;12.90;11.00;;;;;;;28.08;52.73;100036.26;110902;1251;22039;-81
2022/08/20 11:49:22;;;;;;;16.20;11.50;;;;;;;28.05;53.23;100034.66;111057;1250;21966;-78